TimeAKDT,TemperatureF,Dew PointF,Humidity,Sea Level PressureIn,VisibilityMPH,Wind Direction,Wind SpeedMPH,Gust SpeedMPH,PrecipitationIn,Events,Conditions,WindDirDegrees,DateUTC
12:52 AM,-0.9,-8.0,72,29.74,10.0,WSW,6.9,-,N/A,,Overcast,250,2014-03-16 08:52:00
1:52 AM,-2.0,-8.0,76,29.73,10.0,SSW,3.5,-,N/A,,Partly Cloudy,200,2014-03-16 09:52:00
2:52 AM,-4.0,-9.0,79,29.72,10.0,Calm,Calm,-,N/A,,Overcast,0,2014-03-16 10:52:00
3:52 AM,-6.0,-11.0,79,29.70,10.0,Calm,Calm,-,N/A,,Mostly Cloudy,0,2014-03-16 11:52:00
4:52 AM,-13.0,-17.0,82,29.69,10.0,Calm,Calm,-,N/A,,Clear,0,2014-03-16 12:52:00
5:52 AM,-18.0,-23.1,78,29.69,10.0,North,3.5,-,N/A,,Clear,350,2014-03-16 13:52:00
6:52 AM,-17.0,-22.0,78,29.67,10.0,Calm,Calm,-,N/A,,Scattered Clouds,0,2014-03-16 14:52:00
7:52 AM,-16.1,-20.9,79,29.65,10.0,WSW,3.5,-,N/A,,Scattered Clouds,250,2014-03-16 15:52:00
8:52 AM,-18.9,-24.0,78,29.65,10.0,Calm,Calm,-,N/A,,Scattered Clouds,0,2014-03-16 16:52:00
9:52 AM,-13.0,-17.0,82,29.65,10.0,Calm,Calm,-,N/A,,Clear,0,2014-03-16 17:52:00
10:52 AM,-6.0,-11.9,75,29.63,10.0,Calm,Calm,-,N/A,,Clear,0,2014-03-16 18:52:00
11:52 AM,1.0,-7.1,69,29.63,10.0,ESE,4.6,-,N/A,,Clear,110,2014-03-16 19:52:00
12:52 PM,1.9,-5.1,72,29.62,10.0,Calm,Calm,-,N/A,,Clear,0,2014-03-16 20:52:00
1:52 PM,9.0,-4.0,56,29.61,10.0,East,4.6,-,N/A,,Clear,100,2014-03-16 21:52:00
2:52 PM,15.1,-2.0,47,29.60,10.0,East,4.6,-,N/A,,Clear,90,2014-03-16 22:52:00
3:52 PM,16.0,-0.0,49,29.58,10.0,Calm,Calm,-,N/A,,Mostly Cloudy,0,2014-03-16 23:52:00
4:52 PM,19.0,3.0,50,29.57,10.0,ESE,5.8,-,N/A,,Clear,110,2014-03-17 00:52:00
5:52 PM,19.9,1.9,46,29.57,10.0,East,4.6,-,N/A,,Mostly Cloudy,90,2014-03-17 01:52:00
6:52 PM,19.9,3.0,48,29.57,10.0,ESE,6.9,-,N/A,,Overcast,110,2014-03-17 02:52:00
7:52 PM,17.1,3.0,54,29.57,10.0,ENE,3.5,-,N/A,,Overcast,60,2014-03-17 03:52:00
8:52 PM,15.1,1.9,56,29.58,10.0,Calm,Calm,-,N/A,,Mostly Cloudy,0,2014-03-17 04:52:00
9:52 PM,19.0,5.0,54,29.59,10.0,ENE,9.2,-,N/A,,Overcast,70,2014-03-17 05:52:00
10:52 PM,19.0,5.0,54,29.59,10.0,Calm,Calm,-,N/A,,Overcast,0,2014-03-17 06:52:00
11:52 PM,19.9,6.1,55,29.60,10.0,ENE,6.9,-,N/A,,Mostly Cloudy,60,2014-03-17 07:52:00